createdAt,value
2018-04-23T00:00:43.983Z,47.20
2018-04-23T00:03:11.921Z,49.40
2018-04-23T00:05:39.861Z,47.70
2018-04-23T00:08:07.772Z,48.40
2018-04-23T00:10:35.643Z,46.90
2018-04-23T00:13:03.685Z,47.90
2018-04-23T00:15:31.641Z,48.10
2018-04-23T00:17:59.688Z,48.40
2018-04-23T00:20:27.506Z,49.10
2018-04-23T00:22:55.609Z,49.80
2018-04-23T00:25:24.203Z,48.80
2018-04-23T00:27:52.920Z,48.10
2018-04-23T00:30:20.841Z,51.30
2018-04-23T00:32:48.823Z,51.80
2018-04-23T00:35:16.727Z,47.40
2018-04-23T00:37:44.621Z,49.00
2018-04-23T00:40:12.615Z,47.20
2018-04-23T00:42:41.405Z,52.10
2018-04-23T00:45:10.116Z,49.00
2018-04-23T00:47:38.064Z,48.90
2018-04-23T00:50:06.653Z,49.30
2018-04-23T00:52:34.614Z,49.20
2018-04-23T00:55:03.448Z,48.30
2018-04-23T00:57:31.416Z,48.20
2018-04-23T00:59:59.438Z,50.50
2018-04-23T01:02:28.115Z,53.40
2018-04-23T01:04:56.083Z,53.50
2018-04-23T01:07:23.904Z,51.80
2018-04-23T01:09:51.520Z,52.70
2018-04-23T01:12:19.068Z,51.50
2018-04-23T01:14:46.636Z,48.60
2018-04-23T01:17:14.181Z,50.50
2018-04-23T01:19:41.748Z,48.20
2018-04-23T01:22:09.292Z,49.70
2018-04-23T01:24:36.867Z,49.10
2018-04-23T01:27:04.412Z,48.40
2018-04-23T01:29:31.982Z,50.50
2018-04-23T01:31:59.535Z,48.90
2018-04-23T01:34:27.108Z,50.90
2018-04-23T01:36:54.660Z,49.80
2018-04-23T01:39:22.825Z,50.90
2018-04-23T01:41:50.368Z,52.70
2018-04-23T01:44:17.937Z,53.20
2018-04-23T01:46:45.486Z,48.90
2018-04-23T01:49:13.061Z,48.30
2018-04-23T01:51:40.609Z,50.20
2018-04-23T01:54:08.188Z,49.00
2018-04-23T01:56:35.741Z,50.80
2018-04-23T01:59:03.288Z,52.70
2018-04-23T02:01:30.853Z,51.10
2018-04-23T02:03:58.401Z,49.50
2018-04-23T02:06:25.971Z,53.30
2018-04-23T02:08:53.716Z,49.30
2018-04-23T02:11:21.280Z,51.20
2018-04-23T02:13:48.829Z,51.90
2018-04-23T02:16:16.400Z,55.60
2018-04-23T02:18:43.941Z,50.60
2018-04-23T02:21:11.507Z,54.20
2018-04-23T02:23:39.053Z,50.80
2018-04-23T02:26:06.621Z,50.90
2018-04-23T02:28:34.168Z,50.80
2018-04-23T02:31:01.745Z,50.20
2018-04-23T02:33:29.283Z,51.00
2018-04-23T02:35:56.856Z,49.50
2018-04-23T02:38:24.400Z,51.30
2018-04-23T02:40:51.964Z,54.00
2018-04-23T02:43:19.514Z,49.20
2018-04-23T02:45:47.076Z,49.50
2018-04-23T02:48:14.616Z,51.90
2018-04-23T02:50:42.181Z,51.60
2018-04-23T02:53:09.720Z,52.80
2018-04-23T02:55:38.080Z,50.00
2018-04-23T02:58:05.633Z,49.80
2018-04-23T03:00:33.180Z,50.10
2018-04-23T03:03:00.749Z,48.80
2018-04-23T03:05:28.300Z,51.70
2018-04-23T03:07:55.873Z,52.70
2018-04-23T03:10:23.414Z,54.70
2018-04-23T03:12:50.979Z,54.80
2018-04-23T03:15:18.520Z,49.90
2018-04-23T03:17:46.085Z,50.80
2018-04-23T03:20:13.632Z,54.60
2018-04-23T03:22:41.212Z,52.30
2018-04-23T03:25:08.770Z,53.20
2018-04-23T03:27:36.351Z,51.30
2018-04-23T03:30:03.974Z,51.40
2018-04-23T03:32:32.089Z,51.20
2018-04-23T03:34:59.664Z,51.70
2018-04-23T03:37:28.000Z,50.30
2018-04-23T03:39:55.548Z,50.30
2018-04-23T03:42:23.120Z,51.90
2018-04-23T03:44:50.674Z,53.50
2018-04-23T03:47:18.253Z,51.00
2018-04-23T03:49:45.799Z,51.30
2018-04-23T03:52:13.370Z,51.20
2018-04-23T03:54:40.916Z,52.60
2018-04-23T03:57:08.488Z,54.70
2018-04-23T03:59:36.036Z,54.40
2018-04-23T04:02:03.620Z,52.70
2018-04-23T04:04:31.169Z,52.40
2018-04-23T04:06:58.737Z,53.50
2018-04-23T04:09:27.053Z,51.50
2018-04-23T04:11:54.596Z,51.60
2018-04-23T04:14:33.988Z,52.70
2018-04-23T04:17:01.541Z,54.20
2018-04-23T04:19:29.108Z,55.00
2018-04-23T04:21:56.656Z,53.60
2018-04-23T04:24:24.228Z,53.90
2018-04-23T04:26:51.788Z,53.00
2018-04-23T04:29:19.361Z,52.80
2018-04-23T04:31:47.672Z,53.70
2018-04-23T04:34:15.244Z,53.90
2018-04-23T04:36:42.789Z,55.30
2018-04-23T04:39:10.360Z,54.10
2018-04-23T04:41:37.909Z,52.30
2018-04-23T04:44:05.476Z,53.50
2018-04-23T04:46:33.029Z,55.00
2018-04-23T04:49:00.603Z,54.50
2018-04-23T04:51:28.153Z,55.80
2018-04-23T04:53:56.092Z,56.10
2018-04-23T04:56:26.506Z,52.80
2018-04-23T04:58:54.827Z,52.80
2018-04-23T05:01:23.194Z,55.40
2018-04-23T05:03:50.763Z,55.10
2018-04-23T05:06:18.304Z,55.10
2018-04-23T05:08:45.874Z,56.20
2018-04-23T05:11:13.421Z,52.70
2018-04-23T05:13:40.997Z,53.70
2018-04-23T05:16:08.552Z,56.20
2018-04-23T05:18:36.129Z,53.30
2018-04-23T05:21:03.746Z,58.60
2018-04-23T05:23:31.324Z,56.90
2018-04-23T05:25:58.871Z,56.40
2018-04-23T05:28:26.429Z,57.10
2018-04-23T05:30:54.773Z,54.90
2018-04-23T05:33:22.327Z,55.00
2018-04-23T05:35:49.899Z,58.60
2018-04-23T05:38:17.476Z,58.40
2018-04-23T05:40:45.048Z,60.50
2018-04-23T05:43:12.632Z,59.80
2018-04-23T05:45:41.167Z,58.50
2018-04-23T05:48:09.477Z,60.50
2018-04-23T05:50:37.048Z,60.50
2018-04-23T05:53:04.594Z,60.00
2018-04-23T05:55:32.160Z,56.90
2018-04-23T05:57:59.706Z,59.80
2018-04-23T06:00:27.281Z,57.70
2018-04-23T06:02:54.820Z,59.70
2018-04-23T06:05:22.387Z,59.20
2018-04-23T06:07:49.940Z,59.40
2018-04-23T06:10:17.509Z,58.40
2018-04-23T06:12:45.053Z,57.50
2018-04-23T06:15:12.625Z,58.40
2018-04-23T06:17:40.170Z,57.90
2018-04-23T06:20:07.744Z,57.00
2018-04-23T06:22:35.285Z,58.30
2018-04-23T06:25:02.843Z,56.90
2018-04-23T06:27:30.427Z,56.50
2018-04-23T06:29:57.976Z,55.40
2018-04-23T06:32:25.545Z,55.00
2018-04-23T06:34:53.090Z,55.40
2018-04-23T06:37:20.657Z,53.80
2018-04-23T06:39:48.205Z,52.80
2018-04-23T06:42:15.780Z,52.30
2018-04-23T06:44:43.330Z,52.40
2018-04-23T06:47:10.904Z,51.90
2018-04-23T06:49:38.452Z,51.60
2018-04-23T06:52:06.017Z,52.50
2018-04-23T06:54:34.332Z,52.10
2018-04-23T06:57:01.895Z,52.10
2018-04-23T06:59:29.449Z,51.70
2018-04-23T07:01:57.024Z,51.70
2018-04-23T07:04:25.337Z,52.40
2018-04-23T07:06:52.909Z,52.30
2018-04-23T07:09:21.216Z,54.80
2018-04-23T07:11:48.795Z,54.90
2018-04-23T07:14:16.344Z,54.60
2018-04-23T07:16:44.683Z,54.70
2018-04-23T07:19:12.237Z,54.00
2018-04-23T07:21:39.810Z,55.80
2018-04-23T07:24:07.389Z,55.40
2018-04-23T07:26:35.740Z,54.10
2018-04-23T07:29:03.292Z,54.10
2018-04-23T07:31:30.880Z,57.20
2018-04-23T07:33:58.441Z,60.10
2018-04-23T07:36:25.992Z,63.20
2018-04-23T07:38:53.592Z,59.80
2018-04-23T07:41:21.149Z,62.30
2018-04-23T07:43:48.720Z,63.10
2018-04-23T07:46:16.275Z,65.40
2018-04-23T07:48:43.842Z,62.30
2018-04-23T07:51:11.389Z,61.60
2018-04-23T07:53:38.966Z,63.70
2018-04-23T07:56:07.240Z,66.10
2018-04-23T07:58:34.812Z,63.20
2018-04-23T08:01:02.369Z,62.00
2018-04-23T08:03:30.117Z,63.60
2018-04-23T08:05:57.664Z,66.30
2018-04-23T08:08:25.228Z,61.90
2018-04-23T08:10:52.778Z,65.60
2018-04-23T08:13:20.350Z,64.00
2018-04-23T08:15:47.892Z,67.40
2018-04-23T08:18:15.469Z,65.60
2018-04-23T08:20:43.044Z,64.50
2018-04-23T08:23:10.612Z,61.40
2018-04-23T08:25:38.160Z,63.80
2018-04-23T08:28:05.736Z,66.10
2018-04-23T08:30:33.280Z,68.50
2018-04-23T08:33:00.856Z,65.30
2018-04-23T08:35:28.444Z,64.60
2018-04-23T08:37:56.016Z,62.00
2018-04-23T08:40:24.332Z,63.60
2018-04-23T08:42:51.905Z,63.90
2018-04-23T08:45:19.524Z,63.00
2018-04-23T08:47:47.072Z,62.10
2018-04-23T08:50:14.647Z,61.90
2018-04-23T08:52:42.501Z,61.80
2018-04-23T08:55:10.104Z,61.30
2018-04-23T08:57:37.660Z,61.70
2018-04-23T09:00:05.269Z,63.00
2018-04-23T09:02:32.801Z,61.70
2018-04-23T09:05:00.372Z,60.50
2018-04-23T09:07:27.927Z,61.00
2018-04-23T09:09:55.499Z,60.70
2018-04-23T09:12:24.308Z,60.70
2018-04-23T09:14:51.883Z,60.70
2018-04-23T09:17:19.429Z,60.80
2018-04-23T09:19:47.016Z,59.30
2018-04-23T09:22:14.565Z,59.20
2018-04-23T09:24:42.133Z,58.70
2018-04-23T09:27:09.684Z,58.80
2018-04-23T09:29:37.250Z,59.40
2018-04-23T09:32:04.812Z,59.80
2018-04-23T09:34:33.159Z,59.50
2018-04-23T09:37:03.375Z,60.20
2018-04-23T09:39:31.056Z,58.80
2018-04-23T09:41:58.609Z,59.30
2018-04-23T09:44:26.240Z,60.20
2018-04-23T09:46:54.192Z,58.80
2018-04-23T09:49:21.793Z,57.70
2018-04-23T09:51:49.361Z,57.70
2018-04-23T09:54:16.946Z,57.90
2018-04-23T09:56:44.496Z,56.60
2018-04-23T09:59:12.045Z,57.10
2018-04-23T10:01:45.323Z,56.10
2018-04-23T10:04:27.449Z,56.30
2018-04-23T10:06:54.997Z,57.30
2018-04-23T10:09:22.550Z,56.20
2018-04-23T10:11:50.123Z,55.50
2018-04-23T10:14:17.681Z,54.80
2018-04-23T10:16:45.248Z,55.80
2018-04-23T10:19:12.798Z,55.20
2018-04-23T10:21:40.364Z,54.20
2018-04-23T10:24:07.911Z,55.80
2018-04-23T10:26:35.480Z,55.10
2018-04-23T10:29:03.047Z,55.00
2018-04-23T10:31:30.681Z,54.50
2018-04-23T10:33:58.240Z,54.60
2018-04-23T10:36:25.837Z,52.80
2018-04-23T10:38:53.398Z,53.30
2018-04-23T10:41:20.974Z,53.80
2018-04-23T10:43:48.517Z,52.10
2018-04-23T10:46:16.080Z,52.30
2018-04-23T10:48:43.628Z,52.60
2018-04-23T10:51:11.195Z,52.40
2018-04-23T10:53:38.736Z,52.40
2018-04-23T10:56:06.347Z,52.30
2018-04-23T10:58:33.893Z,51.60
2018-04-23T11:01:02.272Z,52.60
2018-04-23T11:03:31.585Z,54.60
2018-04-23T11:05:59.156Z,54.70
2018-04-23T11:08:26.722Z,53.50
2018-04-23T11:10:54.289Z,56.40
2018-04-23T11:13:21.923Z,56.70
2018-04-23T11:15:49.559Z,56.10
2018-04-23T11:18:17.062Z,56.00
2018-04-23T11:20:44.647Z,55.20
2018-04-23T11:23:12.192Z,55.90
2018-04-23T11:25:39.741Z,55.10
2018-04-23T11:28:09.617Z,54.00
2018-04-23T11:30:40.704Z,53.90
2018-04-23T11:33:08.272Z,53.70
2018-04-23T11:35:35.817Z,54.00
2018-04-23T11:38:03.391Z,53.80
2018-04-23T11:40:30.941Z,54.80
2018-04-23T11:42:58.509Z,54.40
2018-04-23T11:45:26.063Z,54.60
2018-04-23T11:47:53.632Z,55.60
2018-04-23T11:50:21.577Z,55.80
2018-04-23T11:52:56.886Z,55.50
2018-04-23T11:55:25.591Z,56.00
2018-04-23T11:57:53.832Z,55.40
2018-04-23T12:00:22.737Z,56.10
2018-04-23T12:02:51.068Z,56.30
2018-04-23T12:05:24.844Z,56.20
2018-04-23T12:07:55.996Z,57.20
2018-04-23T12:10:23.536Z,58.80
2018-04-23T12:12:52.091Z,57.30
2018-04-23T12:15:21.380Z,57.00
2018-04-23T12:17:52.117Z,56.40
2018-04-23T12:20:22.671Z,56.20
2018-04-23T12:22:50.245Z,56.10
2018-04-23T12:25:17.789Z,56.50
2018-04-23T12:27:45.370Z,56.20
2018-04-23T12:30:12.922Z,56.10
2018-04-23T12:32:43.033Z,55.40
2018-04-23T12:35:11.507Z,56.70
2018-04-23T12:37:39.080Z,55.40
2018-04-23T12:40:06.817Z,55.10
2018-04-23T12:42:34.384Z,54.50
2018-04-23T12:45:01.933Z,55.10
2018-04-23T12:47:29.476Z,55.80
2018-04-23T12:49:57.056Z,55.10
2018-04-23T12:52:24.609Z,54.70
2018-04-23T12:54:52.944Z,54.20
2018-04-23T12:57:20.496Z,54.10
2018-04-23T12:59:52.132Z,54.10
2018-04-23T13:02:20.568Z,54.20
2018-04-23T13:04:51.415Z,54.10
2018-04-23T13:07:18.960Z,54.20
2018-04-23T13:09:46.537Z,54.60
2018-04-23T13:12:14.174Z,54.70
2018-04-23T13:14:45.069Z,54.60
2018-04-23T13:17:13.519Z,54.20
2018-04-23T13:19:49.157Z,54.70
2018-04-23T13:22:27.365Z,53.70
2018-04-23T13:24:54.935Z,53.00
2018-04-23T13:27:22.476Z,53.20
2018-04-23T13:29:53.712Z,53.40
2018-04-23T13:32:32.506Z,52.70
2018-04-23T13:35:05.405Z,52.60
2018-04-23T13:37:34.404Z,52.50
2018-04-23T13:40:02.933Z,52.80
2018-04-23T13:42:30.501Z,52.20
2018-04-23T13:45:01.001Z,52.30
2018-04-23T13:47:31.973Z,52.10
2018-04-23T13:49:59.542Z,51.20
2018-04-23T13:52:27.088Z,51.80
2018-04-23T13:54:58.254Z,51.30
2018-04-23T13:57:27.876Z,50.90
2018-04-23T13:59:55.742Z,50.90
2018-04-23T14:02:33.977Z,51.10
2018-04-23T14:05:02.343Z,50.80
2018-04-23T14:07:35.689Z,50.80
2018-04-23T14:10:05.031Z,51.70
2018-04-23T14:12:33.510Z,51.30
2018-04-23T14:15:01.088Z,51.90
2018-04-23T14:17:31.392Z,51.00
2018-04-23T14:20:02.037Z,50.90
2018-04-23T14:22:36.382Z,50.90
2018-04-23T14:25:04.705Z,51.20
2018-04-23T14:27:38.471Z,50.80
2018-04-23T14:30:06.137Z,50.60
2018-04-23T14:32:40.208Z,50.90
2018-04-23T14:35:20.174Z,51.30
2018-04-23T14:37:47.716Z,51.30
2018-04-23T14:40:15.289Z,51.30
2018-04-23T14:42:42.841Z,51.00
2018-04-23T14:45:10.440Z,51.30
2018-04-23T14:47:39.806Z,50.90
2018-04-23T14:50:07.351Z,51.50
2018-04-23T14:52:35.741Z,52.00
2018-04-23T14:55:04.056Z,51.40
2018-04-23T14:57:31.776Z,51.40
2018-04-23T14:59:59.325Z,51.30
2018-04-23T15:02:27.660Z,52.50
2018-04-23T15:04:55.211Z,52.40
2018-04-23T15:07:22.778Z,51.90
2018-04-23T15:09:50.333Z,51.80
2018-04-23T15:12:17.903Z,51.70
2018-04-23T15:14:45.444Z,51.80
2018-04-23T15:17:13.063Z,52.20
2018-04-23T15:19:41.376Z,53.40
2018-04-23T15:22:08.947Z,53.30
2018-04-23T15:24:36.500Z,52.30
2018-04-23T15:27:04.072Z,53.70
2018-04-23T15:29:31.623Z,53.50
2018-04-23T15:31:59.192Z,53.50
2018-04-23T15:34:27.504Z,53.60
2018-04-23T15:39:36.679Z,54.40
2018-04-23T15:42:13.381Z,53.50
2018-04-23T15:44:48.059Z,53.50
2018-04-23T15:47:17.640Z,54.10
2018-04-23T15:49:48.408Z,53.80
2018-04-23T15:52:30.805Z,54.00
2018-04-23T15:54:58.353Z,54.20
2018-04-23T15:57:28.192Z,55.10
2018-04-23T15:59:55.744Z,55.10
2018-04-23T16:02:23.421Z,54.90
2018-04-23T16:04:51.858Z,54.50
2018-04-23T16:07:21.148Z,54.40
2018-04-23T16:09:50.396Z,53.80
2018-04-23T16:12:17.968Z,53.80
2018-04-23T16:14:51.631Z,53.90
2018-04-23T16:17:19.353Z,54.50
2018-04-23T16:19:47.712Z,54.40
2018-04-23T16:22:19.337Z,54.30
2018-04-23T16:24:46.885Z,53.50
2018-04-23T16:27:15.225Z,53.80
2018-04-23T16:29:42.773Z,53.80
2018-04-23T16:32:10.488Z,54.50
2018-04-23T16:34:38.032Z,54.30
2018-04-23T16:37:06.392Z,54.70
2018-04-23T16:39:33.937Z,54.70
2018-04-23T16:42:01.492Z,54.20
2018-04-23T16:44:29.064Z,55.30
2018-04-23T16:46:56.617Z,55.00
2018-04-23T16:49:24.565Z,54.70
2018-04-23T16:51:52.109Z,54.90
2018-04-23T16:54:19.682Z,56.30
2018-04-23T16:56:47.234Z,56.20
2018-04-23T16:59:14.805Z,54.90
2018-04-23T17:01:42.356Z,55.20
2018-04-23T17:04:09.920Z,54.90
2018-04-23T17:06:37.473Z,55.40
2018-04-23T17:09:05.124Z,55.10
2018-04-23T17:11:32.675Z,57.00
2018-04-23T17:14:00.252Z,55.60
2018-04-23T17:16:27.806Z,55.70
2018-04-23T17:18:55.382Z,55.90
2018-04-23T17:21:23.309Z,55.30
2018-04-23T17:23:50.888Z,55.90
2018-04-23T17:26:18.445Z,55.80
2018-04-23T17:28:46.202Z,55.70
2018-04-23T17:31:13.752Z,54.60
2018-04-23T17:33:41.326Z,54.20
2018-04-23T17:36:08.872Z,55.00
2018-04-23T17:38:36.451Z,54.20
2018-04-23T17:41:05.958Z,54.00
2018-04-23T17:43:35.677Z,53.80
2018-04-23T17:46:04.341Z,54.00
2018-04-23T17:48:32.412Z,54.10
2018-04-23T17:51:00.457Z,54.40
2018-04-23T17:53:28.137Z,53.40
2018-04-23T17:55:55.708Z,54.00
2018-04-23T17:58:23.916Z,55.40
2018-04-23T18:00:51.577Z,54.50
2018-04-23T18:03:19.142Z,55.00
2018-04-23T18:05:52.168Z,55.00
2018-04-23T18:08:19.729Z,55.60
2018-04-23T18:10:47.395Z,56.60
2018-04-23T18:13:14.941Z,56.00
2018-04-23T18:15:42.510Z,55.80
2018-04-23T18:18:12.121Z,56.20
2018-04-23T18:20:39.755Z,56.30
2018-04-23T18:23:08.073Z,55.00
2018-04-23T18:25:36.254Z,55.00
2018-04-23T18:28:03.872Z,55.50
2018-04-23T18:30:31.445Z,55.20
2018-04-23T18:32:58.996Z,54.50
2018-04-23T18:35:29.405Z,56.20
2018-04-23T18:37:57.717Z,54.80
2018-04-23T18:40:25.388Z,54.80
2018-04-23T18:42:54.000Z,57.00
2018-04-23T18:45:22.392Z,56.80
2018-04-23T18:47:49.968Z,56.70
2018-04-23T18:50:18.758Z,55.50
2018-04-23T18:52:47.073Z,55.40
2018-04-23T18:55:14.640Z,55.40
2018-04-23T18:57:42.193Z,57.90
2018-04-23T19:00:10.381Z,57.80
2018-04-23T19:02:37.989Z,58.10
2018-04-23T19:05:06.600Z,60.50
2018-04-23T19:07:34.236Z,58.90
2018-04-23T19:10:02.232Z,58.40
2018-04-23T19:12:29.804Z,57.60
2018-04-23T19:14:57.348Z,56.20
2018-04-23T19:17:24.917Z,57.00
2018-04-23T19:19:53.227Z,56.50
2018-04-23T19:22:20.795Z,56.20
2018-04-23T19:24:48.344Z,56.70
2018-04-23T19:27:15.929Z,58.10
2018-04-23T19:29:44.240Z,59.80
2018-04-23T19:32:11.817Z,59.60
2018-04-23T19:34:40.144Z,57.50
2018-04-23T19:37:07.719Z,57.50
2018-04-23T19:39:35.275Z,58.00
2018-04-23T19:42:02.859Z,56.60
2018-04-23T19:44:31.173Z,58.60
2018-04-23T19:46:58.745Z,58.60
2018-04-23T19:49:26.288Z,59.90
2018-04-23T19:51:53.865Z,59.30
2018-04-23T19:54:22.179Z,56.90
2018-04-23T19:56:49.760Z,56.80
2018-04-23T19:59:18.091Z,57.70
2018-04-23T20:01:45.660Z,57.90
2018-04-23T20:04:13.213Z,57.00
2018-04-23T20:06:40.789Z,59.20
2018-04-23T20:09:09.142Z,60.30
2018-04-23T20:11:36.713Z,58.90
2018-04-23T20:14:04.261Z,58.90
2018-04-23T20:16:31.809Z,59.90
2018-04-23T20:18:59.380Z,60.10
2018-04-23T20:21:26.962Z,58.60
2018-04-23T20:23:54.508Z,59.40
2018-04-23T20:26:22.058Z,61.00
2018-04-23T20:28:49.620Z,58.60
2018-04-23T20:31:17.170Z,61.10
2018-04-23T20:33:44.741Z,62.20
2018-04-23T20:36:12.300Z,63.80
2018-04-23T20:39:03.333Z,62.50
2018-04-23T20:41:34.710Z,58.90
2018-04-23T20:46:44.298Z,58.60
2018-04-23T20:49:17.838Z,59.50
2018-04-23T20:51:50.242Z,59.40
2018-04-23T20:54:23.229Z,61.60
2018-04-23T20:56:50.793Z,60.30
2018-04-23T20:59:18.367Z,60.10
2018-04-23T21:01:46.704Z,59.50
2018-04-23T21:04:14.275Z,59.40
2018-04-23T21:06:41.825Z,59.60
2018-04-23T21:09:09.401Z,59.50
2018-04-23T21:11:36.957Z,62.20
2018-04-23T21:14:04.537Z,61.40
2018-04-23T21:16:32.089Z,60.90
2018-04-23T21:19:00.423Z,61.10
2018-04-23T21:21:27.968Z,61.00
2018-04-23T21:23:55.541Z,64.00
2018-04-23T21:26:23.084Z,64.60
2018-04-23T21:28:50.657Z,64.20
2018-04-23T21:31:18.220Z,63.80
2018-04-23T21:33:45.800Z,60.50
2018-04-23T21:36:13.348Z,61.40
2018-04-23T21:38:40.970Z,61.70
2018-04-23T21:41:08.527Z,60.60
2018-04-23T21:43:36.992Z,63.40
2018-04-23T21:46:04.527Z,60.10
2018-04-23T21:48:32.093Z,60.60
2018-04-23T21:51:00.411Z,59.40
2018-04-23T21:53:27.978Z,59.40
2018-04-23T21:55:55.524Z,59.60
2018-04-23T21:58:23.093Z,64.70
2018-04-23T22:00:50.644Z,63.10
2018-04-23T22:03:18.236Z,61.50
2018-04-23T22:05:45.784Z,61.30
2018-04-23T22:08:13.400Z,61.50
2018-04-23T22:10:40.979Z,59.30
2018-04-23T22:13:08.527Z,60.50
2018-04-23T22:15:36.098Z,60.00
2018-04-23T22:18:03.677Z,59.10
2018-04-23T22:20:31.260Z,59.10
2018-04-23T22:22:58.812Z,60.10
2018-04-23T22:25:26.405Z,58.60
2018-04-23T22:27:54.718Z,61.10
2018-04-23T22:30:22.280Z,61.00
2018-04-23T22:32:49.832Z,62.70
2018-04-23T22:35:17.410Z,62.00
2018-04-23T22:37:44.964Z,62.90
2018-04-23T22:40:12.532Z,60.80
2018-04-23T22:42:40.081Z,62.90
2018-04-23T22:45:07.652Z,60.80
2018-04-23T22:47:35.196Z,66.10
2018-04-23T22:50:02.772Z,63.70
2018-04-23T22:52:30.324Z,63.70
2018-04-23T22:54:57.900Z,61.80
2018-04-23T22:57:25.452Z,61.70
2018-04-23T22:59:53.024Z,61.10
2018-04-23T23:02:20.560Z,65.00
2018-04-23T23:04:48.124Z,62.90
2018-04-23T23:07:15.672Z,63.10
2018-04-23T23:09:43.240Z,65.80
2018-04-23T23:12:10.798Z,61.90
2018-04-23T23:14:38.373Z,62.10
2018-04-23T23:17:05.920Z,61.30
2018-04-23T23:19:33.496Z,59.80
2018-04-23T23:22:01.042Z,65.40
2018-04-23T23:24:28.596Z,62.00
2018-04-23T23:26:56.164Z,64.10
2018-04-23T23:29:23.709Z,62.50
2018-04-23T23:31:51.292Z,66.20
2018-04-23T23:34:19.061Z,62.70
2018-04-23T23:36:46.639Z,61.60
2018-04-23T23:39:14.950Z,62.50
2018-04-23T23:41:42.547Z,62.40
2018-04-23T23:44:10.085Z,61.50
2018-04-23T23:46:37.660Z,64.40
2018-04-23T23:49:05.213Z,63.20
2018-04-23T23:51:32.784Z,60.90
2018-04-23T23:54:00.332Z,63.60
2018-04-23T23:56:27.900Z,62.00
2018-04-23T23:58:55.468Z,60.80
